createdAt,value
2018-02-19T00:02:04.769Z,2.96
2018-02-19T00:04:32.279Z,2.95
2018-02-19T00:06:59.788Z,2.91
2018-02-19T00:09:27.389Z,2.94
2018-02-19T00:11:54.959Z,2.86
2018-02-19T00:14:22.468Z,2.86
2018-02-19T00:16:50.004Z,2.79
2018-02-19T00:19:17.550Z,2.74
2018-02-19T00:21:45.061Z,2.71
2018-02-19T00:24:12.595Z,2.63
2018-02-19T00:26:40.119Z,2.65
2018-02-19T00:29:07.628Z,2.64
2018-02-19T00:31:35.225Z,2.63
2018-02-19T00:34:02.761Z,2.62
2018-02-19T00:36:30.286Z,2.59
2018-02-19T00:38:57.798Z,2.56
2018-02-19T00:41:25.310Z,2.57
2018-02-19T00:43:52.819Z,2.56
2018-02-19T00:46:20.333Z,2.51
2018-02-19T00:48:47.847Z,2.50
2018-02-19T00:51:15.358Z,2.44
2018-02-19T00:53:42.881Z,2.47
2018-02-19T00:56:10.396Z,2.42
2018-02-19T00:58:37.909Z,2.41
2018-02-19T01:01:05.548Z,2.38
2018-02-19T01:03:33.052Z,2.38
2018-02-19T01:06:00.572Z,2.39
2018-02-19T01:08:28.095Z,2.36
2018-02-19T01:10:55.607Z,2.32
2018-02-19T01:13:23.124Z,2.32
2018-02-19T01:15:50.630Z,2.28
2018-02-19T01:18:18.143Z,2.24
2018-02-19T01:20:45.650Z,2.25
2018-02-19T01:23:13.165Z,2.28
2018-02-19T01:25:40.676Z,2.21
2018-02-19T01:28:08.183Z,2.14
2018-02-19T01:30:35.708Z,2.16
2018-02-19T01:33:03.226Z,2.15
2018-02-19T01:35:30.752Z,2.15
2018-02-19T01:37:58.322Z,2.14
2018-02-19T01:40:25.888Z,2.11
2018-02-19T01:42:53.418Z,2.14
2018-02-19T01:45:20.999Z,2.08
2018-02-19T01:47:48.562Z,2.16
2018-02-19T01:50:16.072Z,2.05
2018-02-19T01:52:43.585Z,2.09
2018-02-19T01:55:11.206Z,2.08
2018-02-19T01:57:38.761Z,2.10
2018-02-19T02:00:06.308Z,2.13
2018-02-19T02:02:33.916Z,2.07
2018-02-19T02:05:01.475Z,2.10
2018-02-19T02:07:28.983Z,2.07
2018-02-19T02:09:56.597Z,2.09
2018-02-19T02:12:24.109Z,2.05
2018-02-19T02:14:51.720Z,2.03
2018-02-19T02:17:19.229Z,2.07
2018-02-19T02:19:46.747Z,2.04
2018-02-19T02:22:14.261Z,2.02
2018-02-19T02:24:41.783Z,2.05
2018-02-19T02:27:09.295Z,2.06
2018-02-19T02:29:36.869Z,2.03
2018-02-19T02:32:04.377Z,2.02
2018-02-19T02:34:31.992Z,2.06
2018-02-19T02:36:59.518Z,1.93
2018-02-19T02:39:27.054Z,1.91
2018-02-19T02:41:54.675Z,1.95
2018-02-19T02:44:22.244Z,1.92
2018-02-19T02:46:49.765Z,1.89
2018-02-19T02:49:17.318Z,1.93
2018-02-19T02:51:44.858Z,1.82
2018-02-19T02:54:12.375Z,1.78
2018-02-19T02:56:39.905Z,1.79
2018-02-19T02:59:07.493Z,1.89
2018-02-19T03:01:35.013Z,1.86
2018-02-19T03:04:02.553Z,1.80
2018-02-19T03:06:30.064Z,1.82
2018-02-19T03:08:58.025Z,1.77
2018-02-19T03:11:25.612Z,1.79
2018-02-19T03:13:53.162Z,1.71
2018-02-19T03:16:20.670Z,1.76
2018-02-19T03:18:48.180Z,1.75
2018-02-19T03:21:15.706Z,1.68
2018-02-19T03:23:43.227Z,1.72
2018-02-19T03:26:10.756Z,1.65
2018-02-19T03:28:38.313Z,1.75
2018-02-19T03:31:05.836Z,1.65
2018-02-19T03:33:33.436Z,1.58
2018-02-19T03:36:01.104Z,1.58
2018-02-19T03:38:28.621Z,1.58
2018-02-19T03:40:56.221Z,1.58
2018-02-19T03:43:23.782Z,1.55
2018-02-19T03:45:51.296Z,1.67
2018-02-19T03:48:18.816Z,1.56
2018-02-19T03:50:46.324Z,1.51
2018-02-19T03:53:13.832Z,1.53
2018-02-19T03:55:41.345Z,1.50
2018-02-19T03:58:08.937Z,1.53
2018-02-19T04:00:36.456Z,1.50
2018-02-19T04:03:03.996Z,1.53
2018-02-19T04:05:31.616Z,1.51
2018-02-19T04:07:59.179Z,1.56
2018-02-19T04:10:26.728Z,1.46
2018-02-19T04:12:54.292Z,1.36
2018-02-19T04:15:21.857Z,1.31
2018-02-19T04:17:49.411Z,1.29
2018-02-19T04:20:16.977Z,1.28
2018-02-19T04:22:44.489Z,1.33
2018-02-19T04:25:12.095Z,1.21
2018-02-19T04:27:39.604Z,1.20
2018-02-19T04:30:07.127Z,1.21
2018-02-19T04:32:34.646Z,1.26
2018-02-19T04:35:02.238Z,1.23
2018-02-19T04:37:29.793Z,1.20
2018-02-19T04:39:57.296Z,1.13
2018-02-19T04:42:24.913Z,1.14
2018-02-19T04:44:53.981Z,1.14
2018-02-19T04:47:21.497Z,1.05
2018-02-19T04:49:49.011Z,1.05
2018-02-19T04:52:16.601Z,0.95
2018-02-19T04:54:44.148Z,0.98
2018-02-19T04:57:11.705Z,0.93
2018-02-19T04:59:39.217Z,0.92
2018-02-19T05:02:06.745Z,0.91
2018-02-19T05:04:34.260Z,0.96
2018-02-19T05:07:01.810Z,0.90
2018-02-19T05:09:29.336Z,0.89
2018-02-19T05:11:56.849Z,0.89
2018-02-19T05:14:24.388Z,0.84
2018-02-19T05:16:51.993Z,0.83
2018-02-19T05:19:19.539Z,0.85
2018-02-19T05:21:47.074Z,0.79
2018-02-19T05:24:14.604Z,0.80
2018-02-19T05:26:42.116Z,0.81
2018-02-19T05:29:09.681Z,0.78
2018-02-19T05:31:37.245Z,0.82
2018-02-19T05:34:04.759Z,0.81
2018-02-19T05:36:32.307Z,0.80
2018-02-19T05:38:59.920Z,0.75
2018-02-19T05:41:27.484Z,0.77
2018-02-19T05:43:54.992Z,0.80
2018-02-19T05:46:22.601Z,0.72
2018-02-19T05:48:50.129Z,0.69
2018-02-19T05:51:17.648Z,0.71
2018-02-19T05:53:45.283Z,0.67
2018-02-19T05:56:12.798Z,0.68
2018-02-19T05:58:40.339Z,0.63
2018-02-19T06:01:07.856Z,0.68
2018-02-19T06:03:35.430Z,0.69
2018-02-19T06:06:02.945Z,0.67
2018-02-19T06:08:30.479Z,0.67
2018-02-19T06:10:58.008Z,0.68
2018-02-19T06:13:25.557Z,0.68
2018-02-19T06:15:53.089Z,0.66
2018-02-19T06:18:20.600Z,0.63
2018-02-19T06:20:48.104Z,0.64
2018-02-19T06:23:15.629Z,0.58
2018-02-19T06:25:43.265Z,0.63
2018-02-19T06:28:10.835Z,0.68
2018-02-19T06:30:38.350Z,0.58
2018-02-19T06:33:05.937Z,0.64
2018-02-19T06:35:33.445Z,0.74
2018-02-19T06:38:00.955Z,0.74
2018-02-19T06:40:28.498Z,0.78
2018-02-19T06:42:56.008Z,0.90
2018-02-19T06:45:23.637Z,0.75
2018-02-19T06:47:51.144Z,0.81
2018-02-19T06:50:18.752Z,0.93
2018-02-19T06:52:46.302Z,0.95
2018-02-19T06:55:13.838Z,1.00
2018-02-19T06:57:41.357Z,1.16
2018-02-19T07:00:08.872Z,1.18
2018-02-19T07:02:36.465Z,1.21
2018-02-19T07:05:03.981Z,1.22
2018-02-19T07:07:31.511Z,1.47
2018-02-19T07:09:59.031Z,1.46
2018-02-19T07:12:26.593Z,1.31
2018-02-19T07:14:54.116Z,1.34
2018-02-19T07:17:21.708Z,1.31
2018-02-19T07:19:49.225Z,1.28
2018-02-19T07:22:16.739Z,1.40
2018-02-19T07:24:44.264Z,1.35
2018-02-19T07:27:11.804Z,1.46
2018-02-19T07:29:39.405Z,1.52
2018-02-19T07:32:06.970Z,1.54
2018-02-19T07:34:34.490Z,1.49
2018-02-19T07:37:02.089Z,1.46
2018-02-19T07:39:29.596Z,1.78
2018-02-19T07:41:57.118Z,1.77
2018-02-19T07:44:24.668Z,1.63
2018-02-19T07:46:52.203Z,2.10
2018-02-19T07:49:19.728Z,2.31
2018-02-19T07:51:47.257Z,2.58
2018-02-19T07:54:14.769Z,2.65
2018-02-19T07:56:42.367Z,3.09
2018-02-19T07:59:09.887Z,3.40
2018-02-19T08:01:37.410Z,3.51
2018-02-19T08:04:04.936Z,3.83
2018-02-19T08:06:32.501Z,3.83
2018-02-19T08:09:00.063Z,3.66
2018-02-19T08:11:27.575Z,3.77
2018-02-19T08:13:55.121Z,3.78
2018-02-19T08:16:22.658Z,4.36
2018-02-19T08:18:50.199Z,3.98
2018-02-19T08:21:17.708Z,4.18
2018-02-19T08:23:45.220Z,4.05
2018-02-19T08:26:12.729Z,3.99
2018-02-19T08:28:40.246Z,4.62
2018-02-19T08:31:07.764Z,4.26
2018-02-19T08:33:35.288Z,4.52
2018-02-19T08:36:02.797Z,4.47
2018-02-19T08:38:30.313Z,4.67
2018-02-19T08:40:57.839Z,4.44
2018-02-19T08:43:25.352Z,4.74
2018-02-19T08:45:52.901Z,4.74
2018-02-19T08:48:20.417Z,5.03
2018-02-19T08:50:47.932Z,4.32
2018-02-19T08:53:15.489Z,4.82
2018-02-19T08:55:42.997Z,4.72
2018-02-19T08:58:10.522Z,5.29
2018-02-19T09:00:38.044Z,5.40
2018-02-19T09:03:05.547Z,5.36
2018-02-19T09:05:33.062Z,5.91
2018-02-19T09:08:00.635Z,6.56
2018-02-19T09:10:28.151Z,5.78
2018-02-19T09:12:55.669Z,5.06
2018-02-19T09:15:23.183Z,5.44
2018-02-19T09:17:50.696Z,5.45
2018-02-19T09:20:18.214Z,5.82
2018-02-19T09:22:45.737Z,6.15
2018-02-19T09:25:13.249Z,5.96
2018-02-19T09:27:40.767Z,4.58
2018-02-19T09:30:08.281Z,5.94
2018-02-19T09:32:35.801Z,5.72
2018-02-19T09:35:03.312Z,5.62
2018-02-19T09:37:30.828Z,6.23
2018-02-19T09:39:58.340Z,6.06
2018-02-19T09:42:25.848Z,5.55
2018-02-19T09:44:53.385Z,5.37
2018-02-19T09:47:20.898Z,5.68
2018-02-19T09:49:48.419Z,6.25
2018-02-19T09:52:15.924Z,6.05
2018-02-19T09:54:43.433Z,5.61
2018-02-19T09:57:10.961Z,6.32
2018-02-19T09:59:38.480Z,5.94
2018-02-19T10:02:05.990Z,5.58
2018-02-19T10:04:33.497Z,6.51
2018-02-19T10:07:01.013Z,6.51
2018-02-19T10:09:28.538Z,6.81
2018-02-19T10:11:56.052Z,5.74
2018-02-19T10:14:23.569Z,6.42
2018-02-19T10:16:51.095Z,6.81
2018-02-19T10:19:18.607Z,6.03
2018-02-19T10:21:46.117Z,6.26
2018-02-19T10:24:13.636Z,7.27
2018-02-19T10:26:41.150Z,6.74
2018-02-19T10:29:08.667Z,6.39
2018-02-19T10:31:36.179Z,6.04
2018-02-19T10:34:03.688Z,5.85
2018-02-19T10:36:31.224Z,6.10
2018-02-19T10:38:58.732Z,6.07
2018-02-19T10:41:26.244Z,6.26
2018-02-19T10:43:53.748Z,6.62
2018-02-19T10:46:21.302Z,6.94
2018-02-19T10:48:48.815Z,6.48
2018-02-19T10:51:16.340Z,5.49
2018-02-19T10:53:43.857Z,6.52
2018-02-19T10:56:11.369Z,7.08
2018-02-19T10:58:44.849Z,7.31
2018-02-19T11:01:12.365Z,6.43
2018-02-19T11:03:39.883Z,6.89
2018-02-19T11:06:07.424Z,7.14
2018-02-19T11:08:34.942Z,6.60
2018-02-19T11:11:02.454Z,7.36
2018-02-19T11:13:29.977Z,7.56
2018-02-19T11:15:57.491Z,7.98
2018-02-19T11:18:25.001Z,7.48
2018-02-19T11:20:52.513Z,7.28
2018-02-19T11:23:20.054Z,7.27
2018-02-19T11:25:47.564Z,7.80
2018-02-19T11:28:15.073Z,7.72
2018-02-19T11:30:42.593Z,7.00
2018-02-19T11:33:10.128Z,6.75
2018-02-19T11:35:37.645Z,6.18
2018-02-19T11:38:05.167Z,6.78
2018-02-19T11:40:32.682Z,6.53
2018-02-19T11:43:00.197Z,6.78
2018-02-19T11:45:27.734Z,6.96
2018-02-19T11:47:55.261Z,6.56
2018-02-19T11:50:22.789Z,7.13
2018-02-19T11:52:50.293Z,6.41
2018-02-19T11:55:17.854Z,6.40
2018-02-19T11:57:45.345Z,6.26
2018-02-19T12:00:12.853Z,6.63
2018-02-19T12:02:40.381Z,6.19
2018-02-19T12:05:07.903Z,5.93
2018-02-19T12:07:35.420Z,6.23
2018-02-19T12:10:02.949Z,6.43
2018-02-19T12:12:30.460Z,6.65
2018-02-19T12:14:57.977Z,6.61
2018-02-19T12:17:25.494Z,6.77
2018-02-19T12:19:53.004Z,6.76
2018-02-19T12:22:20.523Z,6.52
2018-02-19T12:24:48.046Z,6.87
2018-02-19T12:27:15.553Z,7.11
2018-02-19T12:29:43.079Z,6.74
2018-02-19T12:32:10.589Z,6.87
2018-02-19T12:34:38.194Z,6.26
2018-02-19T12:37:05.704Z,6.08
2018-02-19T12:39:33.243Z,6.15
2018-02-19T12:42:00.771Z,6.81
2018-02-19T12:44:28.323Z,6.63
2018-02-19T12:46:55.824Z,6.41
2018-02-19T12:49:23.441Z,6.50
2018-02-19T12:51:50.960Z,6.54
2018-02-19T12:54:18.561Z,6.51
2018-02-19T12:56:46.081Z,6.38
2018-02-19T12:59:13.599Z,5.65
2018-02-19T13:01:41.113Z,6.20
2018-02-19T13:04:08.697Z,6.55
2018-02-19T13:06:36.204Z,6.48
2018-02-19T13:09:03.833Z,6.69
2018-02-19T13:11:31.377Z,6.69
2018-02-19T13:13:58.880Z,6.12
2018-02-19T13:16:26.509Z,6.36
2018-02-19T13:18:54.024Z,5.96
2018-02-19T13:21:21.556Z,6.26
2018-02-19T13:23:49.065Z,6.34
2018-02-19T13:26:18.122Z,6.53
2018-02-19T13:28:45.634Z,6.68
2018-02-19T13:31:13.158Z,6.38
2018-02-19T13:33:40.672Z,6.74
2018-02-19T13:36:08.271Z,6.79
2018-02-19T13:38:35.781Z,6.67
2018-02-19T13:41:03.415Z,6.56
2018-02-19T13:43:35.423Z,6.84
2018-02-19T13:46:02.938Z,6.80
2018-02-19T13:48:30.450Z,6.80
2018-02-19T13:50:57.964Z,6.72
2018-02-19T13:53:25.481Z,6.89
2018-02-19T13:55:52.994Z,6.92
2018-02-19T13:58:20.522Z,6.83
2018-02-19T14:00:48.038Z,6.69
2018-02-19T14:03:15.553Z,6.48
2018-02-19T14:05:43.113Z,6.56
2018-02-19T14:08:10.626Z,6.34
2018-02-19T14:10:38.148Z,6.06
2018-02-19T14:13:05.658Z,6.29
2018-02-19T14:15:33.173Z,6.52
2018-02-19T14:18:00.687Z,6.54
2018-02-19T14:20:28.204Z,6.73
2018-02-19T14:22:55.712Z,6.73
2018-02-19T14:25:23.224Z,6.62
2018-02-19T14:27:50.742Z,6.24
2018-02-19T14:30:18.253Z,6.57
2018-02-19T14:32:45.769Z,6.61
2018-02-19T14:35:13.297Z,6.68
2018-02-19T14:37:40.836Z,6.84
2018-02-19T14:40:08.355Z,6.92
2018-02-19T14:42:35.865Z,6.59
2018-02-19T14:45:03.374Z,6.59
2018-02-19T14:47:30.885Z,6.39
2018-02-19T14:49:58.392Z,6.25
2018-02-19T14:52:25.903Z,6.32
2018-02-19T14:54:53.422Z,6.22
2018-02-19T14:57:20.938Z,6.24
2018-02-19T14:59:49.308Z,6.18
2018-02-19T15:02:16.792Z,6.06
2018-02-19T15:04:44.309Z,5.93
2018-02-19T15:07:11.821Z,5.82
2018-02-19T15:09:39.329Z,5.88
2018-02-19T15:12:06.836Z,5.93
2018-02-19T15:14:34.369Z,5.76
2018-02-19T15:17:01.893Z,5.70
2018-02-19T15:19:29.404Z,5.77
2018-02-19T15:21:56.989Z,5.96
2018-02-19T15:24:24.513Z,5.78
2018-02-19T15:26:52.096Z,5.84
2018-02-19T15:29:19.604Z,5.54
2018-02-19T15:31:47.112Z,5.45
2018-02-19T15:34:14.627Z,5.59
2018-02-19T15:36:42.201Z,5.59
2018-02-19T15:39:09.803Z,5.41
2018-02-19T15:41:37.336Z,5.41
2018-02-19T15:44:04.881Z,5.44
2018-02-19T15:46:32.398Z,5.45
2018-02-19T15:48:59.916Z,5.38
2018-02-19T15:51:27.469Z,5.30
2018-02-19T15:53:54.984Z,5.38
2018-02-19T15:56:22.512Z,5.22
2018-02-19T15:58:50.033Z,5.30
2018-02-19T16:01:17.554Z,5.23
2018-02-19T16:03:45.077Z,5.20
2018-02-19T16:06:12.648Z,5.25
2018-02-19T16:08:40.156Z,5.23
2018-02-19T16:11:07.661Z,5.12
2018-02-19T16:13:35.226Z,5.03
2018-02-19T16:16:02.786Z,5.00
2018-02-19T16:18:30.292Z,4.96
2018-02-19T16:20:57.801Z,4.91
2018-02-19T16:23:25.371Z,4.87
2018-02-19T16:25:52.921Z,4.96
2018-02-19T16:28:20.482Z,4.84
2018-02-19T16:30:48.009Z,4.85
2018-02-19T16:33:15.602Z,4.80
2018-02-19T16:35:43.111Z,4.80
2018-02-19T16:38:10.773Z,4.81
2018-02-19T16:40:38.283Z,4.80
2018-02-19T16:43:05.841Z,4.76
2018-02-19T16:45:33.351Z,4.75
2018-02-19T16:48:00.868Z,4.68
2018-02-19T16:50:28.376Z,4.70
2018-02-19T16:52:55.892Z,4.71
2018-02-19T16:55:23.404Z,4.69
2018-02-19T16:57:50.909Z,4.65
2018-02-19T17:00:18.429Z,4.62
2018-02-19T17:02:45.969Z,4.58
2018-02-19T17:05:13.577Z,4.53
2018-02-19T17:07:41.104Z,4.54
2018-02-19T17:10:08.706Z,4.48
2018-02-19T17:12:36.253Z,4.48
2018-02-19T17:15:03.817Z,4.45
2018-02-19T17:17:31.372Z,4.40
2018-02-19T17:19:58.904Z,4.38
2018-02-19T17:22:26.433Z,4.37
2018-02-19T17:24:53.939Z,4.35
2018-02-19T17:27:21.459Z,4.35
2018-02-19T17:29:48.983Z,4.35
2018-02-19T17:32:16.492Z,4.35
2018-02-19T17:34:43.998Z,4.37
2018-02-19T17:37:11.504Z,4.34
2018-02-19T17:39:39.082Z,4.33
2018-02-19T17:42:06.681Z,4.27
2018-02-19T17:44:34.188Z,4.28
2018-02-19T17:47:01.801Z,4.26
2018-02-19T17:49:29.312Z,4.29
2018-02-19T17:51:56.849Z,4.25
2018-02-19T17:54:24.382Z,4.19
2018-02-19T17:56:51.928Z,4.18
2018-02-19T17:59:19.442Z,4.16
2018-02-19T18:01:46.985Z,4.23
2018-02-19T18:04:14.589Z,4.16
2018-02-19T18:06:42.113Z,4.13
2018-02-19T18:09:09.741Z,4.09
2018-02-19T18:11:37.256Z,4.09
2018-02-19T18:14:04.765Z,4.07
2018-02-19T18:16:32.268Z,4.08
2018-02-19T18:18:59.791Z,4.10
2018-02-19T18:21:27.310Z,4.05
2018-02-19T18:23:54.832Z,4.08
2018-02-19T18:26:22.343Z,4.09
2018-02-19T18:28:49.854Z,4.03
2018-02-19T18:31:17.369Z,4.07
2018-02-19T18:33:44.909Z,4.07
2018-02-19T18:36:12.421Z,4.04
2018-02-19T18:38:39.936Z,3.99
2018-02-19T18:41:07.456Z,3.98
2018-02-19T18:43:35.004Z,3.98
2018-02-19T18:46:02.515Z,3.92
2018-02-19T18:48:30.061Z,3.96
2018-02-19T18:50:57.574Z,3.91
2018-02-19T18:53:25.089Z,3.94
2018-02-19T18:55:52.595Z,3.93
2018-02-19T18:58:20.109Z,3.99
2018-02-19T19:00:47.617Z,3.98
2018-02-19T19:03:15.258Z,3.86
2018-02-19T19:05:42.804Z,3.83
2018-02-19T19:08:22.039Z,3.87
2018-02-19T19:10:52.534Z,3.81
2018-02-19T19:13:20.075Z,3.84
2018-02-19T19:15:47.613Z,3.84
2018-02-19T19:18:15.129Z,3.77
2018-02-19T19:20:42.652Z,3.77
2018-02-19T19:23:10.183Z,3.78
2018-02-19T19:25:37.709Z,3.73
2018-02-19T19:28:05.225Z,3.73
2018-02-19T19:30:32.744Z,3.69
2018-02-19T19:33:01.227Z,3.64
2018-02-19T19:35:28.749Z,3.61
2018-02-19T19:37:56.288Z,3.57
2018-02-19T19:40:23.841Z,3.54
2018-02-19T19:42:51.364Z,3.56
2018-02-19T19:45:18.905Z,3.53
2018-02-19T19:47:46.474Z,3.53
2018-02-19T19:50:13.989Z,3.53
2018-02-19T19:52:41.513Z,3.51
2018-02-19T19:55:09.145Z,3.50
2018-02-19T19:57:36.681Z,3.45
2018-02-19T20:00:04.294Z,3.37
2018-02-19T20:02:31.808Z,3.39
2018-02-19T20:04:59.388Z,3.38
2018-02-19T20:07:26.944Z,3.33
2018-02-19T20:09:55.009Z,3.26
2018-02-19T20:12:22.512Z,3.26
2018-02-19T20:14:50.141Z,3.26
2018-02-19T20:17:17.691Z,3.27
2018-02-19T20:19:45.200Z,3.22
2018-02-19T20:22:12.718Z,3.23
2018-02-19T20:24:40.228Z,3.27
2018-02-19T20:27:07.771Z,3.16
2018-02-19T20:29:35.277Z,3.11
2018-02-19T20:32:02.828Z,3.06
2018-02-19T20:34:30.345Z,3.08
2018-02-19T20:36:58.685Z,3.04
2018-02-19T20:39:26.197Z,3.07
2018-02-19T20:41:54.030Z,3.00
2018-02-19T20:44:21.558Z,3.01
2018-02-19T20:46:49.716Z,2.96
2018-02-19T20:49:17.234Z,3.00
2018-02-19T20:51:44.748Z,2.98
2018-02-19T20:54:12.281Z,2.94
2018-02-19T20:56:39.804Z,2.89
2018-02-19T20:59:07.330Z,2.87
2018-02-19T21:01:34.844Z,2.87
2018-02-19T21:04:02.361Z,2.84
2018-02-19T21:06:29.873Z,2.84
2018-02-19T21:08:57.414Z,2.87
2018-02-19T21:11:24.930Z,2.91
2018-02-19T21:13:52.442Z,2.84
2018-02-19T21:16:19.957Z,2.85
2018-02-19T21:18:47.473Z,2.85
2018-02-19T21:21:15.016Z,2.82
2018-02-19T21:23:42.532Z,2.86
2018-02-19T21:26:10.045Z,2.83
2018-02-19T21:28:37.553Z,2.85
2018-02-19T21:31:05.078Z,2.78
2018-02-19T21:33:32.592Z,2.82
2018-02-19T21:36:00.118Z,2.78
2018-02-19T21:38:27.646Z,2.75
2018-02-19T21:40:55.162Z,2.76
2018-02-19T21:43:22.678Z,2.75
2018-02-19T21:45:50.193Z,2.64
2018-02-19T21:48:17.719Z,2.60
2018-02-19T21:50:45.232Z,2.56
2018-02-19T21:53:12.758Z,2.59
2018-02-19T21:55:40.280Z,2.59
2018-02-19T21:58:07.799Z,2.56
2018-02-19T22:00:35.312Z,2.53
2018-02-19T22:03:02.862Z,2.46
2018-02-19T22:05:30.376Z,2.37
2018-02-19T22:07:57.893Z,2.40
2018-02-19T22:10:25.409Z,2.36
2018-02-19T22:12:52.930Z,2.30
2018-02-19T22:15:20.445Z,2.27
2018-02-19T22:17:47.973Z,2.30
2018-02-19T22:20:15.489Z,2.31
2018-02-19T22:22:42.997Z,2.21
2018-02-19T22:25:10.508Z,2.25
2018-02-19T22:27:38.021Z,2.22
2018-02-19T22:30:05.538Z,2.14
2018-02-19T22:32:33.070Z,2.03
2018-02-19T22:35:00.652Z,2.00
2018-02-19T22:37:28.161Z,2.01
2018-02-19T22:39:55.698Z,1.94
2018-02-19T22:42:23.208Z,1.93
2018-02-19T22:44:50.789Z,1.88
2018-02-19T22:47:18.309Z,1.86
2018-02-19T22:49:45.884Z,1.92
2018-02-19T22:52:13.586Z,1.91
2018-02-19T22:54:41.114Z,1.92
2018-02-19T22:57:08.656Z,1.82
2018-02-19T22:59:36.170Z,1.75
2018-02-19T23:02:03.680Z,1.72
2018-02-19T23:04:31.265Z,1.76
2018-02-19T23:06:58.842Z,1.69
2018-02-19T23:09:26.399Z,1.68
2018-02-19T23:11:53.922Z,1.60
2018-02-19T23:14:21.509Z,1.51
2018-02-19T23:16:49.039Z,1.48
2018-02-19T23:19:16.627Z,1.56
2018-02-19T23:21:44.174Z,1.44
2018-02-19T23:24:11.696Z,1.38
2018-02-19T23:26:39.318Z,1.37
2018-02-19T23:29:06.877Z,1.36
2018-02-19T23:31:34.886Z,1.37
2018-02-19T23:34:02.409Z,1.40
2018-02-19T23:36:29.924Z,1.31
2018-02-19T23:38:57.436Z,1.24
2018-02-19T23:41:24.958Z,1.20
2018-02-19T23:43:52.480Z,1.18
2018-02-19T23:46:20.006Z,1.16
2018-02-19T23:48:47.533Z,1.14
2018-02-19T23:51:15.055Z,1.14
2018-02-19T23:53:42.592Z,1.13
2018-02-19T23:56:10.130Z,1.12
2018-02-19T23:58:37.641Z,1.10
